createdAt,value
2022-09-12T00:01:06.018Z,76.37
2022-09-12T00:04:08.854Z,76.12
2022-09-12T00:07:12.999Z,75.97
2022-09-12T00:10:15.752Z,75.84
2022-09-12T00:13:18.418Z,75.92
2022-09-12T00:16:23.129Z,76.10
2022-09-12T00:19:26.160Z,76.58
2022-09-12T00:22:30.247Z,77.12
2022-09-12T00:25:32.924Z,77.07
2022-09-12T00:28:36.392Z,76.95
2022-09-12T00:31:39.328Z,76.85
2022-09-12T00:34:42.054Z,77.04
2022-09-12T00:37:46.697Z,77.69
2022-09-12T00:40:49.502Z,78.20
2022-09-12T00:43:53.121Z,78.36
2022-09-12T00:46:58.227Z,78.13
2022-09-12T00:50:03.389Z,79.26
2022-09-12T00:53:07.940Z,78.20
2022-09-12T00:56:11.285Z,78.08
2022-09-12T00:59:15.959Z,78.25
2022-09-12T01:02:18.651Z,77.75
2022-09-12T01:05:21.293Z,78.12
2022-09-12T01:08:25.304Z,78.19
2022-09-12T01:11:27.960Z,78.23
2022-09-12T01:14:30.844Z,78.35
2022-09-12T01:17:38.675Z,79.10
2022-09-12T01:20:49.384Z,79.73
2022-09-12T01:24:21.581Z,79.51
2022-09-12T01:27:34.992Z,79.63
2022-09-12T01:30:47.092Z,80.54
2022-09-12T01:33:57.287Z,79.89
2022-09-12T01:37:01.554Z,80.57
2022-09-12T01:40:05.669Z,80.34
2022-09-12T01:43:11.309Z,80.10
2022-09-12T01:46:17.323Z,79.73
2022-09-12T01:49:22.762Z,79.87
2022-09-12T01:52:27.098Z,79.43
2022-09-12T01:55:31.155Z,79.13
2022-09-12T01:58:36.527Z,80.57
2022-09-12T02:01:41.999Z,81.37
2022-09-12T02:04:47.823Z,80.75
2022-09-12T02:07:52.871Z,80.51
2022-09-12T02:10:57.436Z,79.98
2022-09-12T02:14:02.127Z,80.13
2022-09-12T02:17:08.756Z,80.44
2022-09-12T02:20:21.355Z,80.44
2022-09-12T02:23:39.379Z,80.69
2022-09-12T02:26:44.787Z,81.03
2022-09-12T02:29:47.366Z,81.36
2022-09-12T02:32:58.250Z,81.29
2022-09-12T02:36:04.922Z,80.96
2022-09-12T02:39:07.579Z,81.89
2022-09-12T02:42:10.267Z,82.24
2022-09-12T02:45:13.647Z,82.33
2022-09-12T02:48:19.572Z,83.01
2022-09-12T02:51:23.741Z,83.44
2022-09-12T02:54:26.621Z,83.18
2022-09-12T02:57:29.282Z,83.90
2022-09-12T03:00:32.612Z,84.47
2022-09-12T03:03:48.140Z,83.92
2022-09-12T03:06:52.789Z,83.56
2022-09-12T03:09:58.940Z,82.81
2022-09-12T03:13:06.682Z,82.68
2022-09-12T03:16:12.974Z,82.21
2022-09-12T03:19:20.284Z,82.30
2022-09-12T03:22:23.218Z,82.75
2022-09-12T03:25:28.250Z,83.16
2022-09-12T03:28:30.929Z,83.37
2022-09-12T03:31:33.545Z,83.57
2022-09-12T03:34:37.646Z,83.19
2022-09-12T03:37:40.302Z,82.66
2022-09-12T03:40:43.368Z,82.37
2022-09-12T03:43:46.110Z,82.12
2022-09-12T03:46:49.501Z,82.48
2022-09-12T03:49:53.547Z,82.77
2022-09-12T03:52:56.231Z,83.24
2022-09-12T03:55:58.882Z,83.78
2022-09-12T03:59:01.542Z,83.48
2022-09-12T04:02:04.609Z,83.50
2022-09-12T04:05:09.341Z,84.00
2022-09-12T04:08:11.984Z,83.31
2022-09-12T04:11:15.991Z,82.97
2022-09-12T04:14:18.832Z,82.79
2022-09-12T04:17:21.474Z,83.01
2022-09-12T04:20:25.515Z,83.26
2022-09-12T04:23:28.222Z,83.76
2022-09-12T04:26:31.727Z,83.61
2022-09-12T04:29:35.625Z,84.09
2022-09-12T04:32:38.337Z,83.60
2022-09-12T04:35:42.980Z,83.56
2022-09-12T04:38:46.224Z,83.31
2022-09-12T04:41:48.959Z,83.79
2022-09-12T04:44:52.027Z,83.64
2022-09-12T04:47:54.684Z,83.45
2022-09-12T04:51:06.989Z,82.79
2022-09-12T04:54:11.817Z,83.32
2022-09-12T04:57:14.446Z,83.00
2022-09-12T05:00:17.505Z,82.87
2022-09-12T05:03:20.138Z,82.45
2022-09-12T05:06:25.421Z,82.73
2022-09-12T05:09:29.129Z,82.88
2022-09-12T05:12:32.071Z,82.39
2022-09-12T05:15:34.735Z,82.80
2022-09-12T05:18:37.485Z,82.52
2022-09-12T05:21:41.512Z,83.04
2022-09-12T05:24:49.849Z,83.34
2022-09-12T05:27:53.669Z,82.67
2022-09-12T05:31:01.647Z,83.32
2022-09-12T05:34:06.977Z,83.36
2022-09-12T05:37:10.975Z,83.11
2022-09-12T05:40:17.678Z,83.70
2022-09-12T05:43:21.279Z,84.15
2022-09-12T05:46:25.225Z,83.98
2022-09-12T05:49:27.938Z,83.79
2022-09-12T05:52:32.973Z,84.17
2022-09-12T05:55:36.089Z,83.86
2022-09-12T05:58:39.826Z,83.68
2022-09-12T06:01:42.773Z,83.11
2022-09-12T06:04:45.792Z,82.34
2022-09-12T06:07:49.876Z,81.48
2022-09-12T06:10:52.601Z,79.76
2022-09-12T06:13:56.273Z,77.62
2022-09-12T06:16:58.980Z,76.88
2022-09-12T06:20:01.875Z,75.23
2022-09-12T06:23:05.950Z,75.50
2022-09-12T06:26:09.350Z,75.76
2022-09-12T06:29:13.341Z,75.19
2022-09-12T06:32:16.531Z,75.14
2022-09-12T06:35:19.229Z,74.58
2022-09-12T06:38:23.336Z,75.33
2022-09-12T06:41:26.848Z,75.35
2022-09-12T06:44:29.729Z,76.33
2022-09-12T06:47:32.956Z,77.10
2022-09-12T06:50:35.562Z,77.58
2022-09-12T06:53:39.693Z,77.93
2022-09-12T06:56:42.405Z,78.69
2022-09-12T06:59:45.009Z,78.81
2022-09-12T07:02:47.661Z,79.72
2022-09-12T07:05:50.291Z,79.42
2022-09-12T07:08:54.359Z,79.69
2022-09-12T07:11:56.961Z,79.75
2022-09-12T07:14:59.606Z,79.51
2022-09-12T07:18:02.304Z,78.33
2022-09-12T07:21:05.440Z,77.58
2022-09-12T07:24:10.243Z,77.03
2022-09-12T07:27:13.144Z,76.75
2022-09-12T07:30:16.236Z,76.77
2022-09-12T07:33:21.021Z,75.88
2022-09-12T07:36:25.340Z,75.29
2022-09-12T07:39:29.499Z,76.79
2022-09-12T07:42:32.243Z,76.13
2022-09-12T07:45:34.924Z,76.62
2022-09-12T07:48:37.933Z,74.74
2022-09-12T07:51:41.128Z,74.38
2022-09-12T07:54:45.326Z,73.29
2022-09-12T07:57:50.225Z,72.80
2022-09-12T08:00:52.999Z,72.53
2022-09-12T08:03:57.176Z,71.91
2022-09-12T08:06:59.775Z,72.63
2022-09-12T08:10:03.749Z,72.18
2022-09-12T08:13:08.759Z,71.62
2022-09-12T08:16:13.567Z,70.80
2022-09-12T08:19:16.182Z,70.59
2022-09-12T08:22:22.018Z,68.58
2022-09-12T08:25:26.712Z,67.36
2022-09-12T08:28:29.337Z,68.40
2022-09-12T08:31:36.318Z,69.12
2022-09-12T08:34:38.721Z,67.06
2022-09-12T08:37:41.344Z,67.73
2022-09-12T08:40:49.534Z,67.78
2022-09-12T08:44:05.108Z,65.59
2022-09-12T08:47:26.886Z,64.13
2022-09-12T08:50:29.490Z,64.78
2022-09-12T08:53:32.103Z,65.36
2022-09-12T08:56:37.699Z,65.54
2022-09-12T08:59:42.304Z,65.57
2022-09-12T09:03:18.749Z,64.38
2022-09-12T09:06:27.624Z,63.45
2022-09-12T09:09:37.186Z,64.60
2022-09-12T09:12:45.700Z,64.13
2022-09-12T09:15:49.998Z,62.17
2022-09-12T09:18:52.679Z,62.84
2022-09-12T09:21:57.429Z,62.38
2022-09-12T09:25:02.324Z,60.05
2022-09-12T09:28:08.119Z,60.30
2022-09-12T09:31:15.052Z,60.05
2022-09-12T09:34:19.682Z,60.66
2022-09-12T09:37:25.354Z,62.16
2022-09-12T09:40:30.130Z,59.95
2022-09-12T09:43:34.115Z,58.85
2022-09-12T09:46:38.879Z,57.74
2022-09-12T09:49:41.503Z,58.73
2022-09-12T09:52:44.192Z,58.17
2022-09-12T09:55:46.754Z,57.10
2022-09-12T09:58:50.690Z,57.13
2022-09-12T10:01:54.744Z,57.02
2022-09-12T10:04:58.306Z,55.60
2022-09-12T10:08:00.861Z,55.33
2022-09-12T10:11:04.306Z,58.15
2022-09-12T10:14:24.559Z,56.59
2022-09-12T10:17:33.889Z,56.37
2022-09-12T10:20:39.983Z,56.30
2022-09-12T10:23:42.597Z,55.87
2022-09-12T10:26:45.322Z,53.45
2022-09-12T10:29:50.427Z,55.07
2022-09-12T10:32:54.085Z,54.87
2022-09-12T10:35:56.963Z,53.32
2022-09-12T10:39:00.612Z,53.34
2022-09-12T10:42:03.428Z,52.71
2022-09-12T10:45:21.115Z,53.77
2022-09-12T10:48:26.431Z,53.61
2022-09-12T10:51:29.416Z,53.03
2022-09-12T10:54:31.968Z,52.48
2022-09-12T10:57:47.797Z,54.91
2022-09-12T11:00:53.845Z,54.14
2022-09-12T11:04:06.483Z,52.95
2022-09-12T11:07:19.589Z,51.53
2022-09-12T11:10:27.866Z,52.03
2022-09-12T11:13:40.075Z,50.69
2022-09-12T11:16:45.768Z,51.63
2022-09-12T11:20:23.436Z,49.39
2022-09-12T11:24:02.523Z,49.85
2022-09-12T11:27:14.104Z,49.10
2022-09-12T11:30:17.791Z,48.87
2022-09-12T11:33:27.912Z,49.24
2022-09-12T11:36:34.203Z,48.35
2022-09-12T11:39:38.823Z,48.24
2022-09-12T11:42:41.442Z,48.28
2022-09-12T11:45:45.190Z,48.29
2022-09-12T11:48:52.898Z,49.19
2022-09-12T11:51:57.572Z,49.65
2022-09-12T11:55:03.812Z,51.15
2022-09-12T11:58:08.572Z,50.08
2022-09-12T12:01:13.853Z,50.06
2022-09-12T12:04:19.554Z,48.82
2022-09-12T12:07:22.284Z,48.87
2022-09-12T12:10:27.503Z,48.68
2022-09-12T12:13:32.366Z,48.37
2022-09-12T12:16:35.785Z,47.27
2022-09-12T12:19:39.946Z,47.28
2022-09-12T12:22:48.500Z,46.66
2022-09-12T12:25:54.497Z,47.12
2022-09-12T12:29:01.237Z,46.67
2022-09-12T12:32:27.582Z,47.95
2022-09-12T12:35:41.617Z,47.98
2022-09-12T12:38:44.443Z,47.99
2022-09-12T12:41:47.357Z,47.24
2022-09-12T12:44:51.455Z,47.79
2022-09-12T12:47:54.694Z,46.96
2022-09-12T12:51:24.603Z,46.35
2022-09-12T12:54:55.754Z,46.81
2022-09-12T12:57:58.560Z,46.94
2022-09-12T13:01:11.081Z,44.96
2022-09-12T13:04:15.098Z,48.10
2022-09-12T13:07:26.152Z,49.62
2022-09-12T13:10:29.820Z,46.38
2022-09-12T13:13:33.848Z,47.34
2022-09-12T13:16:37.600Z,48.27
2022-09-12T13:19:40.382Z,48.32
2022-09-12T13:22:45.301Z,46.37
2022-09-12T13:25:47.998Z,48.05
2022-09-12T13:28:51.504Z,47.76
2022-09-12T13:31:55.214Z,47.87
2022-09-12T13:35:04.549Z,48.29
2022-09-12T13:38:09.880Z,48.48
2022-09-12T13:41:23.221Z,47.06
2022-09-12T13:44:26.436Z,47.32
2022-09-12T13:47:31.817Z,47.42
2022-09-12T13:50:38.748Z,46.79
2022-09-12T13:53:44.471Z,46.79
2022-09-12T13:56:51.011Z,45.90
2022-09-12T13:59:56.361Z,48.54
2022-09-12T14:03:12.991Z,47.83
2022-09-12T14:06:16.581Z,47.09
2022-09-12T14:09:25.252Z,46.53
2022-09-12T14:12:30.229Z,46.40
2022-09-12T14:15:33.895Z,46.73
2022-09-12T14:18:38.953Z,45.99
2022-09-12T14:21:41.615Z,46.72
2022-09-12T14:24:51.720Z,46.83
2022-09-12T14:27:55.247Z,46.61
2022-09-12T14:30:59.466Z,46.65
2022-09-12T14:34:12.898Z,47.67
2022-09-12T14:37:15.542Z,47.06
2022-09-12T14:40:21.263Z,48.27
2022-09-12T14:43:26.242Z,47.76
2022-09-12T14:46:31.587Z,47.02
2022-09-12T14:49:35.452Z,47.53
2022-09-12T14:52:39.052Z,47.67
2022-09-12T14:55:46.060Z,47.09
2022-09-12T14:58:48.894Z,47.92
2022-09-12T15:01:51.517Z,48.75
2022-09-12T15:04:55.214Z,48.41
2022-09-12T15:08:01.376Z,48.45
2022-09-12T15:11:07.295Z,48.94
2022-09-12T15:14:12.715Z,48.43
2022-09-12T15:17:15.317Z,49.10
2022-09-12T15:20:18.029Z,49.13
2022-09-12T15:23:26.920Z,49.15
2022-09-12T15:26:31.627Z,49.46
2022-09-12T15:29:34.353Z,48.85
2022-09-12T15:32:36.932Z,48.48
2022-09-12T15:35:39.602Z,48.34
2022-09-12T15:38:42.188Z,48.14
2022-09-12T15:41:47.300Z,48.10
2022-09-12T15:44:49.936Z,48.49
2022-09-12T15:47:52.588Z,48.84
2022-09-12T15:50:57.584Z,48.77
2022-09-12T15:54:00.230Z,48.63
2022-09-12T15:57:04.165Z,48.83
2022-09-12T16:00:08.192Z,49.32
2022-09-12T16:03:17.942Z,49.61
2022-09-12T16:06:20.543Z,50.56
2022-09-12T16:09:24.607Z,51.02
2022-09-12T16:12:28.620Z,50.75
2022-09-12T16:15:31.293Z,50.69
2022-09-12T16:18:33.913Z,51.75
2022-09-12T16:21:36.591Z,51.54
2022-09-12T16:24:39.303Z,52.16
2022-09-12T16:27:43.367Z,51.82
2022-09-12T16:30:46.345Z,51.80
2022-09-12T16:33:49.017Z,51.65
2022-09-12T16:36:51.680Z,52.04
2022-09-12T16:39:54.345Z,51.97
2022-09-12T16:42:58.368Z,51.88
2022-09-12T16:46:04.478Z,51.78
2022-09-12T16:49:07.234Z,51.94
2022-09-12T16:52:12.437Z,52.57
2022-09-12T16:55:15.451Z,53.23
2022-09-12T16:58:19.605Z,53.47
2022-09-12T17:01:23.408Z,53.34
2022-09-12T17:04:26.280Z,53.11
2022-09-12T17:07:29.096Z,53.08
2022-09-12T17:10:32.712Z,53.19
2022-09-12T17:14:02.582Z,53.00
2022-09-12T17:16:59.617Z,52.94
2022-09-12T17:20:02.635Z,53.19
2022-09-12T17:23:09.694Z,53.32
2022-09-12T17:26:12.921Z,53.42
2022-09-12T17:29:17.169Z,53.04
2022-09-12T17:32:19.956Z,53.28
2022-09-12T17:35:23.130Z,53.34
2022-09-12T17:38:26.054Z,53.62
2022-09-12T17:41:29.538Z,53.70
2022-09-12T17:44:35.912Z,54.08
2022-09-12T17:47:38.653Z,54.71
2022-09-12T17:50:41.542Z,54.95
2022-09-12T17:53:44.388Z,55.20
2022-09-12T17:56:49.008Z,55.55
2022-09-12T17:59:53.297Z,56.17
2022-09-12T18:02:55.140Z,56.76
2022-09-12T18:05:58.060Z,56.83
2022-09-12T18:09:01.269Z,57.47
2022-09-12T18:12:04.148Z,57.25
2022-09-12T18:15:09.932Z,58.42
2022-09-12T18:18:12.862Z,59.04
2022-09-12T18:21:15.652Z,59.14
2022-09-12T18:24:18.959Z,59.57
2022-09-12T18:27:21.731Z,59.43
2022-09-12T18:30:25.969Z,60.02
2022-09-12T18:33:28.750Z,60.27
2022-09-12T18:36:31.551Z,61.05
2022-09-12T18:39:34.164Z,61.36
2022-09-12T18:42:36.741Z,62.45
2022-09-12T18:45:40.805Z,62.34
2022-09-12T18:48:44.181Z,62.30
2022-09-12T18:51:46.784Z,62.17
2022-09-12T18:54:49.514Z,62.28
2022-09-12T18:57:52.158Z,62.44
2022-09-12T19:00:56.183Z,62.46
2022-09-12T19:03:58.968Z,62.52
2022-09-12T19:07:02.180Z,62.36
2022-09-12T19:10:05.092Z,62.42
2022-09-12T19:13:07.684Z,62.41
2022-09-12T19:16:13.259Z,62.12
2022-09-12T19:19:16.061Z,61.72
2022-09-12T19:22:18.924Z,61.73
2022-09-12T19:25:21.681Z,62.38
2022-09-12T19:28:24.347Z,62.46
2022-09-12T19:31:28.300Z,62.70
2022-09-12T19:34:30.887Z,62.95
2022-09-12T19:37:33.459Z,63.41
2022-09-12T19:40:37.838Z,63.88
2022-09-12T19:43:42.598Z,64.05
2022-09-12T19:46:46.616Z,64.35
2022-09-12T19:49:49.287Z,64.98
2022-09-12T19:52:51.810Z,64.90
2022-09-12T19:55:54.384Z,65.18
2022-09-12T19:58:57.091Z,65.13
2022-09-12T20:02:01.120Z,65.14
2022-09-12T20:05:03.925Z,65.05
2022-09-12T20:08:07.161Z,64.85
2022-09-12T20:11:09.843Z,64.86
2022-09-12T20:14:12.446Z,65.10
2022-09-12T20:17:16.457Z,65.34
2022-09-12T20:20:19.021Z,65.48
2022-09-12T20:23:21.662Z,65.96
2022-09-12T20:26:24.924Z,66.00
2022-09-12T20:29:27.580Z,66.26
2022-09-12T20:32:31.541Z,66.05
2022-09-12T20:35:34.115Z,66.74
2022-09-12T20:38:36.976Z,67.33
2022-09-12T20:41:39.570Z,67.33
2022-09-12T20:44:42.103Z,67.44
2022-09-12T20:47:45.988Z,67.61
2022-09-12T20:50:48.580Z,67.88
2022-09-12T20:53:53.832Z,68.07
2022-09-12T20:56:56.393Z,68.09
2022-09-12T20:59:58.991Z,68.08
2022-09-12T21:03:02.896Z,68.90
2022-09-12T21:06:06.326Z,69.16
2022-09-12T21:09:08.971Z,68.96
2022-09-12T21:12:11.551Z,68.75
2022-09-12T21:15:14.083Z,68.99
2022-09-12T21:18:18.040Z,68.81
2022-09-12T21:21:20.874Z,68.85
2022-09-12T21:24:23.538Z,68.82
2022-09-12T21:27:26.121Z,69.12
2022-09-12T21:30:29.732Z,69.34
2022-09-12T21:33:33.642Z,69.32
2022-09-12T21:36:36.203Z,69.44
2022-09-12T21:39:38.834Z,69.14
2022-09-12T21:42:41.439Z,69.14
2022-09-12T21:45:43.973Z,69.31
2022-09-12T21:48:47.914Z,69.45
2022-09-12T21:51:51.332Z,69.75
2022-09-12T21:54:53.879Z,70.01
2022-09-12T21:57:56.471Z,70.31
2022-09-12T22:01:00.284Z,70.91
2022-09-12T22:04:04.567Z,71.14
2022-09-12T22:07:07.377Z,72.02
2022-09-12T22:10:10.571Z,72.46
2022-09-12T22:13:13.087Z,72.92
2022-09-12T22:16:15.721Z,73.03
2022-09-12T22:19:19.778Z,73.67
2022-09-12T22:22:39.977Z,73.43
2022-09-12T22:25:42.527Z,72.95
2022-09-12T22:28:45.169Z,73.04
2022-09-12T22:31:47.756Z,73.13
2022-09-12T22:34:51.704Z,72.92
2022-09-12T22:37:54.302Z,72.75
2022-09-12T22:40:58.494Z,72.66
2022-09-12T22:44:01.049Z,72.72
2022-09-12T22:47:03.700Z,72.66
2022-09-12T22:50:08.841Z,72.83
2022-09-12T22:53:11.485Z,72.79
2022-09-12T22:56:14.034Z,72.72
2022-09-12T22:59:16.755Z,72.96
2022-09-12T23:02:19.301Z,72.93
2022-09-12T23:05:23.312Z,72.91
2022-09-12T23:08:29.361Z,73.00
2022-09-12T23:11:31.933Z,72.89
2022-09-12T23:14:34.559Z,73.00
2022-09-12T23:17:37.083Z,73.18
2022-09-12T23:20:41.093Z,73.31
2022-09-12T23:23:43.703Z,73.20
2022-09-12T23:26:46.273Z,73.17
2022-09-12T23:29:52.370Z,73.62
2022-09-12T23:32:55.080Z,73.44
2022-09-12T23:36:02.126Z,74.00
2022-09-12T23:39:04.980Z,73.92
2022-09-12T23:42:07.670Z,73.93
2022-09-12T23:45:11.095Z,74.48
2022-09-12T23:48:13.669Z,74.44
2022-09-12T23:51:18.735Z,75.44
2022-09-12T23:54:21.315Z,76.09
2022-09-12T23:57:23.872Z,76.52
